Time;durP1;ratioP1;P1;durP2;ratioP2;P2;SDS_P1;SDS_P2;PMS_P1;PMS_P2;Temp;Humidity;BMP_temperature;BMP_pressure;BME280_temperature;BME280_humidity;BME280_pressure;Samples;Min_cycle;Max_cycle;Signal;HPM_P1;HPM_P2
2021/05/23 06:15:19;;;;;;;4.85;1.70;;;11.80;99.90;;;;;;3619551;39;814271;-87
2021/05/23 06:17:46;;;;;;;9.38;2.20;;;11.80;99.90;;;;;;3627024;39;20118;-86
2021/05/23 06:20:12;;;;;;;5.85;1.88;;;11.60;99.90;;;;;;3629060;39;20050;-87
2021/05/23 06:22:38;;;;;;;9.07;1.90;;;11.70;99.90;;;;;;3632163;39;20054;-87
2021/05/23 06:25:06;;;;;;;8.05;1.83;;;12.30;99.90;;;;;;3635649;39;20054;-88
2021/05/23 06:27:32;;;;;;;4.78;2.00;;;12.90;99.90;;;;;;3634023;39;20401;-87
2021/05/23 06:29:57;;;;;;;9.00;2.42;;;12.80;99.90;;;;;;3633093;39;20058;-84
2021/05/23 06:32:23;;;;;;;16.35;3.10;;;12.60;99.90;;;;;;3632861;39;20052;-83
2021/05/23 06:34:49;;;;;;;4.68;1.90;;;12.20;99.90;;;;;;3632764;39;20095;-83
2021/05/23 06:37:15;;;;;;;10.48;2.65;;;11.90;99.90;;;;;;3639764;39;20052;-84
2021/05/23 06:39:40;;;;;;;7.30;2.58;;;11.90;99.90;;;;;;3633482;39;20050;-82
2021/05/23 06:42:06;;;;;;;7.60;2.25;;;12.10;99.90;;;;;;3632960;39;20042;-83
2021/05/23 06:44:32;;;;;;;9.20;2.45;;;12.50;99.90;;;;;;3633051;39;20282;-85
2021/05/23 06:46:58;;;;;;;9.00;2.33;;;12.30;99.90;;;;;;3628061;39;20078;-84
2021/05/23 06:49:23;;;;;;;7.05;2.63;;;12.00;99.90;;;;;;3632702;39;20185;-85
2021/05/23 06:51:49;;;;;;;9.48;3.20;;;11.60;99.90;;;;;;3632946;39;20057;-84
2021/05/23 06:54:15;;;;;;;9.43;2.88;;;11.40;99.90;;;;;;3631954;39;20046;-82
2021/05/23 06:56:41;;;;;;;6.82;2.80;;;11.50;99.90;;;;;;3631945;39;20058;-82
2021/05/23 06:59:07;;;;;;;9.85;3.25;;;11.60;99.90;;;;;;3633001;39;20409;-81
2021/05/23 07:01:32;;;;;;;7.32;3.60;;;11.60;99.90;;;;;;3632674;39;20612;-83
2021/05/23 07:03:59;;;;;;;6.00;2.47;;;11.70;99.90;;;;;;3631168;39;20053;-83
2021/05/23 07:06:25;;;;;;;5.65;2.80;;;11.60;99.90;;;;;;3631029;39;20068;-83
2021/05/23 07:08:51;;;;;;;5.57;2.88;;;11.80;99.90;;;;;;3632633;39;20356;-84
2021/05/23 07:11:16;;;;;;;6.68;3.58;;;11.60;99.90;;;;;;3632898;39;20050;-83
2021/05/23 07:13:42;;;;;;;7.25;3.60;;;11.70;99.90;;;;;;3630298;39;20058;-87
2021/05/23 07:16:08;;;;;;;10.38;3.28;;;11.80;99.90;;;;;;3626659;39;20336;-82
2021/05/23 07:18:34;;;;;;;12.32;4.70;;;11.90;99.90;;;;;;3632163;39;20918;-85
2021/05/23 07:21:00;;;;;;;9.65;5.30;;;11.60;99.90;;;;;;3632454;39;20048;-83
2021/05/23 07:29:37;;;;;;;16.23;6.03;;;11.40;99.90;;;;;;3571569;39;724629;-83
2021/05/23 07:32:04;;;;;;;10.57;4.72;;;11.50;99.90;;;;;;3584662;39;20062;-87
2021/05/23 07:34:29;;;;;;;15.73;4.97;;;11.20;99.90;;;;;;3600597;39;20043;-87
2021/05/23 07:36:55;;;;;;;7.18;3.97;;;11.10;99.90;;;;;;3614374;39;20487;-88
2021/05/23 07:39:21;;;;;;;10.27;4.93;;;11.30;99.90;;;;;;3611397;39;20140;-87
2021/05/23 07:41:47;;;;;;;11.43;5.45;;;11.20;99.90;;;;;;3609205;39;20413;-86
2021/05/23 07:44:12;;;;;;;9.38;5.90;;;11.20;99.90;;;;;;3603077;39;20062;-87
2021/05/23 07:46:38;;;;;;;10.95;5.90;;;11.20;99.90;;;;;;3612930;39;20050;-87
2021/05/23 07:49:04;;;;;;;14.75;7.03;;;11.10;99.90;;;;;;3613438;39;20057;-87
2021/05/23 07:51:29;;;;;;;12.93;5.78;;;11.10;99.90;;;;;;3613629;39;20052;-88
2021/05/23 07:53:55;;;;;;;12.93;5.70;;;11.10;99.90;;;;;;3613653;39;20051;-88
2021/05/23 07:56:21;;;;;;;13.15;5.50;;;11.00;99.90;;;;;;3616858;39;20131;-89
2021/05/23 07:58:46;;;;;;;14.30;5.30;;;11.00;99.90;;;;;;3613998;39;20075;-87
2021/05/23 08:01:13;;;;;;;14.15;4.85;;;10.90;99.90;;;;;;3603930;39;20216;-88
2021/05/23 08:03:40;;;;;;;13.63;5.85;;;10.90;99.90;;;;;;3603900;39;20224;-87
2021/05/23 08:06:08;;;;;;;13.73;4.97;;;10.90;99.90;;;;;;3610220;39;20318;-86
2021/05/23 08:08:34;;;;;;;14.45;5.15;;;10.70;99.90;;;;;;3608516;39;20468;-88
2021/05/23 08:11:00;;;;;;;8.52;4.07;;;10.50;99.90;;;;;;3604931;39;20063;-88
2021/05/23 08:13:29;;;;;;;9.98;5.32;;;10.40;99.90;;;;;;3617925;39;20059;-85
2021/05/23 08:15:57;;;;;;;7.85;3.40;;;10.40;99.90;;;;;;3620060;39;20147;-88
2021/05/23 08:18:28;;;;;;;8.10;4.82;;;10.30;99.90;;;;;;3612264;39;20058;-87
2021/05/23 08:20:56;;;;;;;8.50;4.13;;;10.30;99.90;;;;;;3624950;39;20046;-88
2021/05/23 08:23:24;;;;;;;6.63;3.92;;;10.20;99.90;;;;;;3617708;39;20048;-87
2021/05/23 08:25:49;;;;;;;7.72;3.95;;;10.20;99.90;;;;;;3626018;39;20043;-89
2021/05/23 08:28:15;;;;;;;13.65;4.90;;;10.10;99.90;;;;;;3612665;39;20494;-87
2021/05/23 08:30:41;;;;;;;10.98;5.32;;;10.20;99.90;;;;;;3614694;39;20047;-87
2021/05/23 08:33:08;;;;;;;12.75;8.02;;;10.30;99.90;;;;;;3615076;39;20063;-87
2021/05/23 08:35:34;;;;;;;14.43;8.98;;;10.20;99.90;;;;;;3603328;39;20165;-87
2021/05/23 08:37:59;;;;;;;15.18;9.70;;;10.20;99.90;;;;;;3612438;39;20064;-87
2021/05/23 08:40:25;;;;;;;11.43;4.68;;;10.20;99.90;;;;;;3607743;39;20491;-87
2021/05/23 08:42:51;;;;;;;15.57;6.95;;;10.00;99.90;;;;;;3606407;39;20096;-86
2021/05/23 08:45:17;;;;;;;12.57;7.95;;;9.90;99.90;;;;;;3605858;39;20043;-87
2021/05/23 08:47:45;;;;;;;14.32;7.85;;;10.00;99.90;;;;;;3605384;39;20055;-88
2021/05/23 08:50:12;;;;;;;17.83;8.45;;;10.00;99.90;;;;;;3606302;39;20047;-87
2021/05/23 08:52:38;;;;;;;9.35;6.35;;;10.00;99.90;;;;;;3606007;39;20052;-86
2021/05/23 08:55:05;;;;;;;12.88;6.40;;;9.90;99.90;;;;;;3606468;39;20409;-90
2021/05/23 08:57:30;;;;;;;9.93;5.25;;;10.00;99.90;;;;;;3596977;39;20091;-87
2021/05/23 08:59:56;;;;;;;9.43;6.05;;;9.90;99.90;;;;;;3606422;39;20047;-88
2021/05/23 09:02:23;;;;;;;11.32;4.22;;;10.00;99.90;;;;;;3605488;39;20729;-86
2021/05/23 09:04:50;;;;;;;8.18;3.83;;;10.00;99.90;;;;;;3596357;39;20151;-86
2021/05/23 09:07:16;;;;;;;7.55;4.75;;;10.00;99.90;;;;;;3595805;39;20410;-86
2021/05/23 09:09:46;;;;;;;5.72;4.15;;;10.10;99.90;;;;;;3596697;39;20051;-88
2021/05/23 09:12:15;;;;;;;5.65;3.28;;;10.20;99.90;;;;;;3606210;39;20039;-88
2021/05/23 09:14:49;;;;;;;5.32;3.38;;;10.20;99.90;;;;;;3605514;39;20047;-86
2021/05/23 09:17:26;;;;;;;5.00;3.17;;;10.40;99.90;;;;;;3605917;39;20054;-87
2021/05/23 09:19:54;;;;;;;4.40;3.20;;;10.20;99.90;;;;;;3606452;39;20585;-88
2021/05/23 09:22:27;;;;;;;6.22;3.53;;;10.20;99.90;;;;;;3607452;39;20058;-89
2021/05/23 09:24:57;;;;;;;3.22;3.03;;;10.30;99.90;;;;;;3608451;39;20048;-89
2021/05/23 09:27:30;;;;;;;5.00;3.80;;;10.20;99.90;;;;;;3598468;39;20044;-87
2021/05/23 09:30:18;;;;;;;3.83;3.00;;;10.30;99.90;;;;;;3608507;39;20051;-88
2021/05/23 09:32:46;;;;;;;4.43;3.38;;;10.10;99.90;;;;;;3608114;39;20582;-89
2021/05/23 09:35:14;;;;;;;4.82;4.32;;;10.20;99.90;;;;;;3615590;39;20044;-87
2021/05/23 09:37:42;;;;;;;4.25;3.88;;;10.20;99.90;;;;;;3606756;39;20101;-87
2021/05/23 09:40:19;;;;;;;5.03;4.43;;;10.20;99.90;;;;;;3607484;39;20084;-87
2021/05/23 09:42:46;;;;;;;5.13;4.28;;;10.20;99.90;;;;;;3608293;39;20062;-89
2021/05/23 09:45:13;;;;;;;4.93;4.43;;;10.20;99.90;;;;;;3600788;39;20052;-88
2021/05/23 09:47:58;;;;;;;5.28;4.63;;;10.20;99.90;;;;;;3597323;39;20113;-89
2021/05/23 09:50:43;;;;;;;5.82;5.32;;;10.40;99.90;;;;;;3606080;39;20432;-89
2021/05/23 09:53:27;;;;;;;5.85;4.90;;;10.50;99.90;;;;;;3606306;39;20048;-90
2021/05/23 09:55:55;;;;;;;6.57;5.68;;;10.80;99.90;;;;;;3614415;39;20288;-89
2021/05/23 09:58:34;;;;;;;5.93;5.40;;;10.90;99.90;;;;;;3598740;39;20056;-88
2021/05/23 10:01:00;;;;;;;8.68;6.32;;;11.10;99.90;;;;;;3597431;39;20036;-88
2021/05/23 10:03:31;;;;;;;7.22;5.93;;;11.10;99.90;;;;;;3607100;39;20522;-89
2021/05/23 10:05:58;;;;;;;9.20;6.03;;;11.10;99.90;;;;;;3607496;39;20048;-88
2021/05/23 10:08:24;;;;;;;8.40;6.60;;;11.00;99.90;;;;;;3607135;39;20425;-88
2021/05/23 10:10:50;;;;;;;6.68;5.68;;;11.10;99.90;;;;;;3609288;39;20056;-88
2021/05/23 10:13:17;;;;;;;6.70;6.10;;;11.10;99.90;;;;;;3604952;39;20113;-87
2021/05/23 10:15:43;;;;;;;5.85;4.72;;;11.20;99.90;;;;;;3598020;39;20398;-90
2021/05/23 10:18:10;;;;;;;5.28;4.63;;;11.30;99.90;;;;;;3597560;39;20051;-86
2021/05/23 10:20:36;;;;;;;4.47;4.00;;;11.50;99.90;;;;;;3596163;39;20394;-87
2021/05/23 10:23:16;;;;;;;4.05;3.40;;;11.70;99.90;;;;;;3594172;39;20127;-86
2021/05/23 10:25:50;;;;;;;4.05;3.72;;;11.80;99.90;;;;;;3604672;39;20059;-87
2021/05/23 10:28:18;;;;;;;12.10;6.43;;;12.10;99.90;;;;;;3593708;39;20039;-88
2021/05/23 10:30:56;;;;;;;9.88;6.38;;;12.60;99.90;;;;;;3606024;39;20055;-88
2021/05/23 10:33:24;;;;;;;7.60;4.88;;;13.00;99.90;;;;;;3594157;39;20061;-87
2021/05/23 10:35:53;;;;;;;4.43;4.03;;;13.50;99.90;;;;;;3601867;39;20059;-87
2021/05/23 10:38:21;;;;;;;4.28;3.53;;;13.30;99.90;;;;;;3602049;39;20378;-89
2021/05/23 10:40:57;;;;;;;5.03;4.38;;;13.60;99.90;;;;;;3600540;39;20048;-88
2021/05/23 10:43:33;;;;;;;4.13;3.65;;;13.90;99.90;;;;;;3605092;39;20043;-87
2021/05/23 10:46:08;;;;;;;3.65;3.15;;;14.90;99.90;;;;;;3593955;39;20350;-88
2021/05/23 10:48:35;;;;;;;3.40;3.10;;;14.80;99.90;;;;;;3594686;39;20081;-87
2021/05/23 10:51:15;;;;;;;4.72;3.95;;;14.50;99.90;;;;;;3595115;39;20051;-85
2021/05/23 10:53:41;;;;;;;4.22;3.65;;;14.50;99.90;;;;;;3604328;39;20383;-86
2021/05/23 10:56:29;;;;;;;6.20;3.20;;;14.10;99.90;;;;;;3604751;39;20138;-86
2021/05/23 10:59:02;;;;;;;4.15;3.60;;;13.90;99.90;;;;;;3594892;39;20051;-86
2021/05/23 11:01:39;;;;;;;3.80;3.22;;;14.40;99.90;;;;;;3604211;39;20109;-87
2021/05/23 11:04:12;;;;;;;3.67;2.88;;;15.10;99.90;;;;;;3604219;39;20414;-85
2021/05/23 11:06:38;;;;;;;3.05;2.85;;;15.80;99.90;;;;;;3604412;39;20044;-86
2021/05/23 11:09:15;;;;;;;3.03;2.72;;;15.80;99.90;;;;;;3604689;39;20120;-85
2021/05/23 11:11:43;;;;;;;2.38;2.17;;;15.80;99.90;;;;;;3604418;39;20464;-85
2021/05/23 11:14:24;;;;;;;3.83;2.75;;;15.50;99.90;;;;;;3604974;39;20143;-86
2021/05/23 11:16:57;;;;;;;3.53;1.70;;;16.10;99.90;;;;;;3594957;39;20059;-85
2021/05/23 11:19:30;;;;;;;3.53;2.40;;;16.20;99.90;;;;;;3604811;39;20160;-86
2021/05/23 11:21:57;;;;;;;3.47;2.08;;;16.20;99.90;;;;;;3612038;39;20307;-86
2021/05/23 11:24:28;;;;;;;2.63;1.50;;;16.90;99.90;;;;;;3604736;39;20062;-86
2021/05/23 11:26:53;;;;;;;2.17;1.98;;;17.40;99.90;;;;;;3595060;39;20054;-85
2021/05/23 11:29:19;;;;;;;1.50;1.08;;;16.50;99.90;;;;;;3605401;39;20043;-85
2021/05/23 11:31:48;;;;;;;2.40;1.42;;;16.90;99.90;;;;;;3604803;39;20799;-86
2021/05/23 11:34:18;;;;;;;1.92;1.30;;;16.90;99.90;;;;;;3605004;39;20406;-87
2021/05/23 11:36:44;;;;;;;1.30;1.20;;;16.30;99.90;;;;;;3604325;39;20044;-86
2021/05/23 11:39:12;;;;;;;1.85;1.45;;;15.80;99.90;;;;;;3604511;39;20047;-85
2021/05/23 11:41:43;;;;;;;2.28;1.70;;;15.60;99.90;;;;;;3602569;39;20057;-86
2021/05/23 11:44:11;;;;;;;3.35;2.10;;;15.90;99.90;;;;;;3595388;39;20051;-86
2021/05/23 11:46:39;;;;;;;1.95;1.77;;;16.10;99.90;;;;;;3603783;39;20047;-85
2021/05/23 11:49:05;;;;;;;1.60;1.50;;;16.30;99.90;;;;;;3604830;39;20052;-86
2021/05/23 11:51:34;;;;;;;2.85;1.20;;;15.60;99.90;;;;;;3604229;39;20087;-86
2021/05/23 11:54:03;;;;;;;3.00;1.65;;;16.00;99.90;;;;;;3604902;39;20386;-85
2021/05/23 11:56:31;;;;;;;4.05;2.42;;;15.70;99.90;;;;;;3604777;39;20497;-85
2021/05/23 11:59:05;;;;;;;2.72;1.73;;;15.40;99.90;;;;;;3604281;39;20047;-87
2021/05/23 12:01:45;;;;;;;6.50;2.95;;;15.40;99.90;;;;;;3604079;39;20437;-87
2021/05/23 12:04:14;;;;;;;2.35;2.15;;;15.30;99.90;;;;;;3604020;39;20100;-87
2021/05/23 12:06:45;;;;;;;4.32;2.95;;;15.40;99.90;;;;;;3603923;39;20132;-86
2021/05/23 12:09:14;;;;;;;3.60;2.50;;;15.60;99.90;;;;;;3604238;39;20035;-85
2021/05/23 12:11:53;;;;;;;4.88;3.40;;;15.20;99.90;;;;;;3603845;39;20047;-86
2021/05/23 12:14:23;;;;;;;2.83;2.42;;;15.10;99.90;;;;;;3604371;39;20336;-86
2021/05/23 12:17:10;;;;;;;4.07;2.88;;;15.30;99.90;;;;;;3604632;39;20128;-86
2021/05/23 12:19:57;;;;;;;3.90;2.35;;;15.00;99.90;;;;;;3596690;39;20133;-86
2021/05/23 12:22:29;;;;;;;3.95;2.17;;;14.80;99.90;;;;;;3607348;39;20056;-85
2021/05/23 12:24:57;;;;;;;4.60;2.33;;;14.70;99.90;;;;;;3612372;39;20059;-86
2021/05/23 12:27:41;;;;;;;4.88;2.25;;;14.80;99.90;;;;;;3604109;39;20048;-87
2021/05/23 12:30:25;;;;;;;2.97;2.38;;;14.60;99.90;;;;;;3594904;39;20051;-87
2021/05/23 12:33:07;;;;;;;4.43;2.55;;;14.50;99.90;;;;;;3601727;39;20063;-88
2021/05/23 12:35:35;;;;;;;4.22;2.47;;;14.50;99.90;;;;;;3606386;39;20046;-87
2021/05/23 12:38:05;;;;;;;5.15;2.45;;;14.20;99.90;;;;;;3613965;39;20508;-87
2021/05/23 12:40:52;;;;;;;4.78;2.85;;;13.80;99.90;;;;;;3605624;39;20429;-88
2021/05/23 12:43:22;;;;;;;8.00;3.70;;;13.90;99.90;;;;;;3597207;39;20067;-88
2021/05/23 12:45:54;;;;;;;7.22;4.13;;;13.20;99.90;;;;;;3602566;39;20063;-86
2021/05/23 12:48:20;;;;;;;5.68;3.88;;;12.70;99.90;;;;;;3605747;39;20147;-89
2021/05/23 12:50:51;;;;;;;6.82;3.13;;;12.30;99.90;;;;;;3597604;39;20051;-87
2021/05/23 12:53:41;;;;;;;6.05;3.90;;;12.00;99.90;;;;;;3601292;39;20059;-87
2021/05/23 12:56:18;;;;;;;8.02;4.35;;;11.70;99.90;;;;;;3600850;39;20131;-87
2021/05/23 12:58:48;;;;;;;8.55;4.93;;;11.70;99.90;;;;;;3608204;39;20508;-88
2021/05/23 13:01:16;;;;;;;6.90;3.97;;;12.20;99.90;;;;;;3602163;39;20050;-89
2021/05/23 13:03:49;;;;;;;6.28;4.40;;;12.10;99.90;;;;;;3598606;39;20071;-88
2021/05/23 13:06:14;;;;;;;6.13;3.67;;;11.80;99.90;;;;;;3609332;39;20051;-88
2021/05/23 13:08:40;;;;;;;5.95;4.35;;;12.10;99.90;;;;;;3609272;39;20069;-87
2021/05/23 13:11:16;;;;;;;5.50;4.50;;;12.40;99.90;;;;;;3598969;39;20405;-89
2021/05/23 13:13:42;;;;;;;5.50;4.80;;;12.40;99.90;;;;;;3597864;39;20148;-89
2021/05/23 13:16:08;;;;;;;5.10;4.60;;;12.40;99.90;;;;;;3611044;39;20143;-89
2021/05/23 13:18:36;;;;;;;6.38;3.80;;;12.50;99.90;;;;;;3607329;39;20056;-87
2021/05/23 13:21:13;;;;;;;7.25;4.82;;;13.10;99.90;;;;;;3608467;39;20062;-88
2021/05/23 13:23:40;;;;;;;8.40;4.70;;;13.00;99.90;;;;;;3608133;39;20400;-88
2021/05/23 13:26:11;;;;;;;5.95;5.00;;;13.10;99.90;;;;;;3607700;39;20043;-89
2021/05/23 13:28:36;;;;;;;6.93;4.78;;;13.30;99.90;;;;;;3595554;39;20036;-89
2021/05/23 13:31:02;;;;;;;7.07;5.05;;;12.90;99.90;;;;;;3597916;39;20048;-89
2021/05/23 13:33:27;;;;;;;6.05;4.68;;;12.90;99.90;;;;;;3596853;39;20051;-87
2021/05/23 13:35:53;;;;;;;5.03;4.53;;;13.30;99.90;;;;;;3590192;40;20072;-89
2021/05/23 13:38:19;;;;;;;4.57;3.63;;;13.20;99.90;;;;;;3596276;39;20416;-88
2021/05/23 13:40:45;;;;;;;5.13;3.67;;;13.40;99.90;;;;;;3595564;39;20052;-88
2021/05/23 13:43:11;;;;;;;5.07;3.63;;;13.90;99.90;;;;;;3597129;39;20076;-88
2021/05/23 13:45:37;;;;;;;6.72;3.40;;;13.70;99.90;;;;;;3596621;39;20044;-86
2021/05/23 13:48:02;;;;;;;3.03;2.42;;;14.10;99.90;;;;;;3596386;39;20137;-89
2021/05/23 13:50:28;;;;;;;5.32;2.58;;;14.00;99.90;;;;;;3596483;39;20105;-87
2021/05/23 13:52:54;;;;;;;3.80;1.98;;;13.80;99.90;;;;;;3597696;40;20050;-88
2021/05/23 13:55:19;;;;;;;5.15;3.40;;;13.80;99.90;;;;;;3600131;39;20051;-85
2021/05/23 13:57:49;;;;;;;7.85;3.40;;;13.70;99.90;;;;;;3597150;39;20169;-87
2021/05/23 14:00:15;;;;;;;5.53;2.90;;;13.60;99.90;;;;;;3597510;39;20056;-88
2021/05/23 14:02:41;;;;;;;4.85;3.70;;;13.20;99.90;;;;;;3596531;39;20052;-88
2021/05/23 14:05:07;;;;;;;9.10;3.75;;;13.40;99.90;;;;;;3598858;39;20060;-89
2021/05/23 14:07:33;;;;;;;6.72;3.67;;;13.20;99.90;;;;;;3604334;39;20028;-88
2021/05/23 14:09:59;;;;;;;6.70;3.17;;;13.30;99.90;;;;;;3605574;39;20143;-88
2021/05/23 14:12:24;;;;;;;8.25;4.07;;;13.30;99.90;;;;;;3604484;39;20048;-87
2021/05/23 14:14:50;;;;;;;6.30;3.65;;;13.20;99.90;;;;;;3599943;39;20040;-89
2021/05/23 14:17:16;;;;;;;13.18;3.83;;;13.30;99.90;;;;;;3604349;39;20141;-87
2021/05/23 14:19:41;;;;;;;5.93;2.35;;;13.50;99.90;;;;;;3601195;39;20050;-90
2021/05/23 14:22:07;;;;;;;8.70;2.00;;;14.00;99.90;;;;;;3607164;39;20047;-89
2021/05/23 14:24:33;;;;;;;6.72;1.60;;;13.80;99.90;;;;;;3605989;39;20260;-90
2021/05/23 14:26:58;;;;;;;7.28;2.53;;;13.40;99.90;;;;;;3597538;39;20307;-89
2021/05/23 14:29:24;;;;;;;8.05;1.67;;;13.30;99.90;;;;;;3606748;39;20047;-88
2021/05/23 14:31:50;;;;;;;4.28;1.35;;;13.50;99.90;;;;;;3606669;39;20112;-88
2021/05/23 14:34:16;;;;;;;6.60;1.85;;;13.80;99.90;;;;;;3597727;39;20132;-85
2021/05/23 14:36:42;;;;;;;7.78;1.45;;;14.00;99.90;;;;;;3606129;39;20063;-89
2021/05/23 14:39:09;;;;;;;6.72;1.80;;;14.10;99.90;;;;;;3596295;39;20055;-87
2021/05/23 14:41:37;;;;;;;7.22;1.55;;;14.20;99.90;;;;;;3608103;39;20079;-87
2021/05/23 14:44:04;;;;;;;6.93;2.20;;;14.20;99.90;;;;;;3597111;39;20043;-84
2021/05/23 14:46:30;;;;;;;8.30;1.67;;;14.00;99.90;;;;;;3604919;39;20417;-86
2021/05/23 14:48:56;;;;;;;5.43;1.13;;;13.60;99.90;;;;;;3604808;39;20075;-85
2021/05/23 14:51:21;;;;;;;6.65;1.67;;;13.50;99.90;;;;;;3605277;39;20055;-84
2021/05/23 14:53:47;;;;;;;5.05;1.63;;;14.30;99.90;;;;;;3606524;39;20204;-85
2021/05/23 14:56:13;;;;;;;8.75;2.25;;;13.90;99.90;;;;;;3604595;39;20970;-85
2021/05/23 14:58:39;;;;;;;5.40;1.10;;;14.40;99.90;;;;;;3603296;39;20055;-85
2021/05/23 15:01:05;;;;;;;5.28;1.50;;;14.10;99.90;;;;;;3603402;39;20051;-86
2021/05/23 15:03:32;;;;;;;6.20;1.25;;;13.60;99.90;;;;;;3604128;39;20055;-85
2021/05/23 15:05:58;;;;;;;7.72;1.35;;;13.40;99.90;;;;;;3603978;39;20060;-83
2021/05/23 15:08:27;;;;;;;5.47;1.42;;;13.30;99.90;;;;;;3604293;39;20499;-86
2021/05/23 15:10:54;;;;;;;7.57;3.00;;;13.90;99.90;;;;;;3604482;39;20432;-85
2021/05/23 15:13:20;;;;;;;5.18;1.63;;;14.50;99.90;;;;;;3604032;39;20058;-86
2021/05/23 15:15:46;;;;;;;6.45;1.60;;;14.60;99.90;;;;;;3604350;39;20393;-86
2021/05/23 15:18:12;;;;;;;6.55;1.45;;;14.50;99.90;;;;;;3610402;39;20044;-85
2021/05/23 15:20:38;;;;;;;9.27;1.17;;;14.50;99.90;;;;;;3603843;39;20140;-84
2021/05/23 15:23:05;;;;;;;6.35;1.65;;;14.20;99.90;;;;;;3604259;39;20074;-85
2021/05/23 15:25:31;;;;;;;4.72;1.20;;;14.70;99.90;;;;;;3604524;39;20055;-85
2021/05/23 15:30:25;;;;;;;3.10;1.10;;;14.10;99.90;;;;;;3604608;39;20061;-84
2021/05/23 15:32:52;;;;;;;5.90;1.15;;;14.50;99.90;;;;;;3604584;39;20483;-85
2021/05/23 15:35:18;;;;;;;6.60;1.33;;;14.80;99.90;;;;;;3607665;39;20074;-85
2021/05/23 15:37:44;;;;;;;7.05;1.20;;;14.70;99.90;;;;;;3605210;39;20393;-87
2021/05/23 15:40:11;;;;;;;2.83;0.80;;;13.70;99.90;;;;;;3594962;39;20051;-85
2021/05/23 15:42:36;;;;;;;6.95;1.40;;;13.70;99.90;;;;;;3603976;39;20094;-85
2021/05/23 15:45:03;;;;;;;3.80;1.02;;;13.50;99.90;;;;;;3594872;39;20401;-85
2021/05/23 15:47:29;;;;;;;6.70;1.20;;;13.50;99.90;;;;;;3603692;39;20097;-86
2021/05/23 15:49:55;;;;;;;2.30;0.88;;;13.50;99.90;;;;;;3605155;39;20043;-85
2021/05/23 15:52:21;;;;;;;2.08;0.85;;;13.60;99.90;;;;;;3600210;39;20052;-86
2021/05/23 15:54:46;;;;;;;4.85;1.20;;;13.50;99.90;;;;;;3604632;39;20052;-84
2021/05/23 15:57:12;;;;;;;5.53;1.00;;;13.30;99.90;;;;;;3605985;39;20374;-88
2021/05/23 15:59:37;;;;;;;8.18;1.17;;;13.30;99.90;;;;;;3597036;39;20054;-89
2021/05/23 16:02:03;;;;;;;4.55;1.17;;;13.20;99.90;;;;;;3598447;39;20048;-90
2021/05/23 16:04:29;;;;;;;7.35;1.35;;;13.30;99.90;;;;;;3597253;39;20047;-88
2021/05/23 16:06:55;;;;;;;8.68;1.50;;;13.50;99.90;;;;;;3597123;39;20047;-88
2021/05/23 16:09:21;;;;;;;4.75;1.33;;;13.80;99.90;;;;;;3614693;39;20083;-88
2021/05/23 16:11:49;;;;;;;6.05;1.35;;;13.70;99.90;;;;;;3597153;39;20307;-87
2021/05/23 16:14:16;;;;;;;9.20;2.25;;;13.90;99.90;;;;;;3606216;39;20307;-89
2021/05/23 16:16:44;;;;;;;6.55;1.30;;;13.50;99.90;;;;;;3595640;39;20048;-88
2021/05/23 16:19:10;;;;;;;7.57;1.38;;;13.20;99.90;;;;;;3597091;39;20113;-88
2021/05/23 16:21:36;;;;;;;8.25;2.05;;;13.30;99.90;;;;;;3606383;39;20079;-88
2021/05/23 16:24:02;;;;;;;5.57;1.30;;;13.40;99.90;;;;;;3606056;39;20052;-88
2021/05/23 16:26:28;;;;;;;7.57;1.85;;;13.40;99.90;;;;;;3606204;39;20136;-89
2021/05/23 16:28:53;;;;;;;4.70;1.27;;;13.30;99.90;;;;;;3605791;39;20048;-89
2021/05/23 16:31:19;;;;;;;5.53;1.50;;;13.30;99.90;;;;;;3606495;39;20210;-89
2021/05/23 16:33:44;;;;;;;7.32;1.60;;;13.50;99.90;;;;;;3606825;39;20537;-91
2021/05/23 16:36:11;;;;;;;5.15;1.25;;;13.50;99.90;;;;;;3607915;39;20326;-87
2021/05/23 16:38:38;;;;;;;8.57;1.42;;;13.60;99.90;;;;;;3607683;39;20510;-87
2021/05/23 16:41:08;;;;;;;3.55;0.98;;;13.50;99.90;;;;;;3599015;39;20055;-88
2021/05/23 16:43:35;;;;;;;2.80;1.08;;;13.60;99.50;;;;;;3604527;39;20051;-87
2021/05/23 16:46:01;;;;;;;7.00;1.63;;;13.60;99.10;;;;;;3598440;39;20117;-88
2021/05/23 16:48:27;;;;;;;1.75;0.68;;;13.40;99.90;;;;;;3599790;39;20081;-86
2021/05/23 16:50:53;;;;;;;3.83;0.95;;;13.40;99.90;;;;;;3599736;39;20050;-89
2021/05/23 16:53:19;;;;;;;2.55;0.95;;;13.20;99.90;;;;;;3608503;39;20043;-89
2021/05/23 16:55:45;;;;;;;3.22;0.80;;;13.30;99.90;;;;;;3607563;39;20059;-88
2021/05/23 16:58:11;;;;;;;2.10;0.80;;;13.30;99.90;;;;;;3605388;39;20318;-86
2021/05/23 17:00:38;;;;;;;4.38;1.08;;;13.30;99.90;;;;;;3606229;39;20039;-88
2021/05/23 17:03:04;;;;;;;5.90;0.93;;;13.40;99.90;;;;;;3597518;39;20047;-87
2021/05/23 17:05:31;;;;;;;2.92;0.85;;;13.50;99.90;;;;;;3598039;39;20051;-87
2021/05/23 17:07:57;;;;;;;7.78;1.00;;;13.50;99.90;;;;;;3597675;39;20132;-88
2021/05/23 17:10:23;;;;;;;2.15;0.80;;;13.50;99.90;;;;;;3603227;39;20052;-88
2021/05/23 17:12:49;;;;;;;4.70;1.75;;;13.40;99.90;;;;;;3605550;39;20499;-88
2021/05/23 17:15:19;;;;;;;3.90;1.00;;;13.30;99.90;;;;;;3608824;39;20725;-88
2021/05/23 17:17:45;;;;;;;6.95;1.10;;;13.20;99.90;;;;;;3599018;39;20058;-89
2021/05/23 17:20:12;;;;;;;6.78;1.05;;;13.00;99.90;;;;;;3608589;39;20143;-87
2021/05/23 17:22:38;;;;;;;4.70;1.13;;;13.10;99.90;;;;;;3598983;39;20040;-89
2021/05/23 17:25:09;;;;;;;8.05;1.20;;;12.90;99.90;;;;;;3599812;39;20040;-89
2021/05/23 17:27:39;;;;;;;3.90;1.40;;;13.00;99.90;;;;;;3607489;39;20173;-88
2021/05/23 17:30:07;;;;;;;6.85;1.40;;;13.10;99.90;;;;;;3607645;39;20517;-90
2021/05/23 17:32:33;;;;;;;4.82;1.25;;;12.90;99.90;;;;;;3607370;39;20051;-89
2021/05/23 17:35:05;;;;;;;7.38;1.10;;;12.90;99.90;;;;;;3624140;39;20047;-89
2021/05/23 17:37:31;;;;;;;1.83;0.93;;;12.90;99.90;;;;;;3608505;39;20120;-88
2021/05/23 17:39:57;;;;;;;1.88;1.10;;;12.80;99.90;;;;;;3600718;39;20052;-89
2021/05/23 17:42:23;;;;;;;5.50;1.30;;;12.80;99.90;;;;;;3603749;39;20051;-89
2021/05/23 17:44:49;;;;;;;8.07;1.70;;;12.80;99.90;;;;;;3607272;39;20069;-89
2021/05/23 17:47:14;;;;;;;10.23;2.00;;;12.70;99.90;;;;;;3597758;39;20051;-87
2021/05/23 17:49:41;;;;;;;5.82;1.30;;;12.80;99.90;;;;;;3598588;39;20047;-86
2021/05/23 17:52:08;;;;;;;6.75;1.80;;;12.80;99.90;;;;;;3596752;39;20050;-87
2021/05/23 17:54:37;;;;;;;5.88;1.45;;;12.90;99.90;;;;;;3606767;39;20055;-86
2021/05/23 17:57:04;;;;;;;5.68;1.38;;;12.80;99.90;;;;;;3595853;39;20043;-86
2021/05/23 17:59:30;;;;;;;9.38;2.33;;;12.70;99.90;;;;;;3605786;39;20055;-86
2021/05/23 18:01:56;;;;;;;6.20;1.73;;;12.70;99.90;;;;;;3595986;39;20052;-85
2021/05/23 18:04:22;;;;;;;6.38;2.03;;;12.80;99.90;;;;;;3605514;39;20068;-87
2021/05/23 18:06:48;;;;;;;8.23;2.50;;;12.80;99.90;;;;;;3595854;39;20771;-88
2021/05/23 18:09:16;;;;;;;3.90;1.77;;;12.70;99.90;;;;;;3605072;39;20311;-88
2021/05/23 18:11:42;;;;;;;5.80;2.00;;;12.80;99.90;;;;;;3595629;39;20047;-88
2021/05/23 18:14:08;;;;;;;6.22;1.85;;;12.70;99.90;;;;;;3605211;39;20051;-89
2021/05/23 18:16:34;;;;;;;6.72;1.65;;;12.70;99.90;;;;;;3604007;39;20058;-88
2021/05/23 18:19:00;;;;;;;9.02;2.28;;;12.70;99.90;;;;;;3600068;39;20063;-87
2021/05/23 18:21:26;;;;;;;6.47;2.00;;;12.70;99.90;;;;;;3595892;39;20043;-88
2021/05/23 18:23:52;;;;;;;7.85;1.75;;;12.80;99.90;;;;;;3605818;39;20054;-87
2021/05/23 18:26:18;;;;;;;10.25;2.10;;;12.70;99.90;;;;;;3605324;39;20056;-89
2021/05/23 18:28:43;;;;;;;9.60;1.90;;;12.70;99.90;;;;;;3604965;39;20055;-88
2021/05/23 18:31:09;;;;;;;6.50;2.45;;;12.70;99.90;;;;;;3605464;39;20040;-87
2021/05/23 18:33:35;;;;;;;8.20;2.03;;;12.70;99.90;;;;;;3605117;39;20043;-88
2021/05/23 18:36:01;;;;;;;8.82;1.90;;;12.70;99.90;;;;;;3605283;39;20109;-86
2021/05/23 18:38:27;;;;;;;7.25;1.77;;;12.60;99.90;;;;;;3604547;39;20043;-86
2021/05/23 18:40:58;;;;;;;8.63;2.13;;;12.70;99.90;;;;;;3596480;39;20132;-87
2021/05/23 18:43:25;;;;;;;8.00;1.80;;;12.60;99.90;;;;;;3606453;39;20060;-87
2021/05/23 18:45:51;;;;;;;10.27;1.98;;;12.60;99.90;;;;;;3595924;39;20043;-85
2021/05/23 18:48:18;;;;;;;8.57;1.65;;;12.60;99.90;;;;;;3605790;39;20086;-87
2021/05/23 18:50:49;;;;;;;6.30;2.10;;;12.50;99.90;;;;;;3605268;39;20053;-89
2021/05/23 18:53:17;;;;;;;6.97;1.65;;;12.50;99.90;;;;;;3595782;39;20184;-87
2021/05/23 18:55:44;;;;;;;7.70;2.22;;;12.40;99.90;;;;;;3605866;39;20053;-87
2021/05/23 18:58:10;;;;;;;8.15;2.30;;;12.40;99.90;;;;;;3617091;39;20140;-87
2021/05/23 19:00:36;;;;;;;6.35;1.98;;;12.40;99.90;;;;;;3605585;39;20047;-87
2021/05/23 19:03:05;;;;;;;6.60;2.33;;;12.40;99.90;;;;;;3608321;39;20437;-88
2021/05/23 19:05:31;;;;;;;8.77;2.22;;;12.40;99.90;;;;;;3606732;39;20048;-87
2021/05/23 19:07:56;;;;;;;11.35;3.40;;;12.80;99.90;;;;;;3606921;39;20427;-89
2021/05/23 19:10:22;;;;;;;7.30;2.88;;;12.60;99.90;;;;;;3597034;39;20080;-88
2021/05/23 19:12:50;;;;;;;13.23;3.88;;;12.60;99.90;;;;;;3596434;39;20055;-88